sensor_id;sensor_type;location;lat;lon;timestamp;pressure;altitude;pressure_sealevel;temperature;humidity
15694;BME280;7947;48.834;9.132;2023-05-02T00:00:47;98279.47;;;10.82;91.57
15694;BME280;7947;48.834;9.132;2023-05-02T00:03:49;98280.28;;;10.83;90.97
15694;BME280;7947;48.834;9.132;2023-05-02T00:06:54;98282.16;;;10.82;91.02
15694;BME280;7947;48.834;9.132;2023-05-02T00:09:57;98285.91;;;10.81;91.06
15694;BME280;7947;48.834;9.132;2023-05-02T00:13:00;98281.59;;;10.80;90.40
15694;BME280;7947;48.834;9.132;2023-05-02T00:16:03;98282.41;;;10.81;90.26
15694;BME280;7947;48.834;9.132;2023-05-02T00:19:05;98283.78;;;10.73;90.51
15694;BME280;7947;48.834;9.132;2023-05-02T00:22:09;98274.94;;;10.68;90.43
15694;BME280;7947;48.834;9.132;2023-05-02T00:25:12;98267.44;;;10.60;91.26
15694;BME280;7947;48.834;9.132;2023-05-02T00:28:17;98279.53;;;10.62;91.11
15694;BME280;7947;48.834;9.132;2023-05-02T00:31:20;98276.03;;;10.62;90.58
15694;BME280;7947;48.834;9.132;2023-05-02T00:34:23;98272.00;;;10.59;90.25
15694;BME280;7947;48.834;9.132;2023-05-02T00:37:27;98273.88;;;10.59;89.69
15694;BME280;7947;48.834;9.132;2023-05-02T00:40:30;98280.34;;;10.53;90.25
15694;BME280;7947;48.834;9.132;2023-05-02T00:43:33;98281.13;;;10.58;91.24
15694;BME280;7947;48.834;9.132;2023-05-02T00:46:37;98275.78;;;10.58;91.12
15694;BME280;7947;48.834;9.132;2023-05-02T00:49:40;98283.00;;;10.68;92.09
15694;BME280;7947;48.834;9.132;2023-05-02T00:52:44;98282.97;;;10.73;91.52
15694;BME280;7947;48.834;9.132;2023-05-02T00:55:47;98284.88;;;10.67;91.29
15694;BME280;7947;48.834;9.132;2023-05-02T00:58:50;98285.13;;;10.66;91.81
15694;BME280;7947;48.834;9.132;2023-05-02T01:02:10;98283.78;;;10.63;91.62
15694;BME280;7947;48.834;9.132;2023-05-02T01:05:27;98280.84;;;10.65;91.80
15694;BME280;7947;48.834;9.132;2023-05-02T01:08:39;98291.81;;;10.68;91.54
15694;BME280;7947;48.834;9.132;2023-05-02T01:11:51;98288.88;;;10.65;91.61
15694;BME280;7947;48.834;9.132;2023-05-02T01:14:56;98294.00;;;10.61;91.61
15694;BME280;7947;48.834;9.132;2023-05-02T01:18:00;98289.44;;;10.62;91.37
15694;BME280;7947;48.834;9.132;2023-05-02T01:21:06;98300.69;;;10.59;91.17
15694;BME280;7947;48.834;9.132;2023-05-02T01:24:13;98295.59;;;10.57;91.35
15694;BME280;7947;48.834;9.132;2023-05-02T01:27:27;98296.41;;;10.48;91.80
15694;BME280;7947;48.834;9.132;2023-05-02T01:30:36;98295.59;;;10.47;92.56
15694;BME280;7947;48.834;9.132;2023-05-02T01:33:40;98299.91;;;10.48;93.19
15694;BME280;7947;48.834;9.132;2023-05-02T01:36:46;98289.16;;;10.53;93.07
15694;BME280;7947;48.834;9.132;2023-05-02T01:39:50;98298.00;;;10.59;93.01
15694;BME280;7947;48.834;9.132;2023-05-02T01:42:54;98300.97;;;10.57;92.65
15694;BME280;7947;48.834;9.132;2023-05-02T01:46:01;98305.00;;;10.55;91.89
15694;BME280;7947;48.834;9.132;2023-05-02T01:49:07;98300.44;;;10.50;92.05
15694;BME280;7947;48.834;9.132;2023-05-02T01:52:11;98296.97;;;10.45;92.34
15694;BME280;7947;48.834;9.132;2023-05-02T01:55:16;98301.78;;;10.43;92.24
15694;BME280;7947;48.834;9.132;2023-05-02T01:58:19;98301.25;;;10.41;91.75
15694;BME280;7947;48.834;9.132;2023-05-02T02:01:24;98310.09;;;10.36;92.01
15694;BME280;7947;48.834;9.132;2023-05-02T02:04:30;98306.06;;;10.34;92.11
15694;BME280;7947;48.834;9.132;2023-05-02T02:07:34;98308.47;;;10.30;92.10
15694;BME280;7947;48.834;9.132;2023-05-02T02:10:40;98306.34;;;10.32;91.14
15694;BME280;7947;48.834;9.132;2023-05-02T02:13:48;98313.88;;;10.35;90.93
15694;BME280;7947;48.834;9.132;2023-05-02T02:16:54;98322.97;;;10.34;91.15
15694;BME280;7947;48.834;9.132;2023-05-02T02:20:00;98321.09;;;10.30;91.01
15694;BME280;7947;48.834;9.132;2023-05-02T02:23:06;98319.22;;;10.25;91.88
15694;BME280;7947;48.834;9.132;2023-05-02T02:26:10;98328.31;;;10.24;91.70
15694;BME280;7947;48.834;9.132;2023-05-02T02:29:13;98336.63;;;10.23;90.32
15694;BME280;7947;48.834;9.132;2023-05-02T02:32:17;98334.75;;;10.18;90.34
15694;BME280;7947;48.834;9.132;2023-05-02T02:35:20;98340.09;;;10.18;90.21
15694;BME280;7947;48.834;9.132;2023-05-02T02:38:28;98345.47;;;10.13;89.91
15694;BME280;7947;48.834;9.132;2023-05-02T02:41:37;98340.66;;;10.10;90.06
15694;BME280;7947;48.834;9.132;2023-05-02T02:44:52;98351.31;;;10.05;90.10
15694;BME280;7947;48.834;9.132;2023-05-02T02:48:04;98348.34;;;10.07;90.33
15694;BME280;7947;48.834;9.132;2023-05-02T02:51:12;98358.28;;;10.01;90.72
15694;BME280;7947;48.834;9.132;2023-05-02T02:54:21;98366.06;;;10.02;91.56
15694;BME280;7947;48.834;9.132;2023-05-02T02:57:39;98372.47;;;10.07;91.63
15694;BME280;7947;48.834;9.132;2023-05-02T03:00:45;98373.81;;;10.09;91.10
15694;BME280;7947;48.834;9.132;2023-05-02T03:03:50;98376.03;;;10.17;90.47
15694;BME280;7947;48.834;9.132;2023-05-02T03:06:55;98389.97;;;10.19;90.79
15694;BME280;7947;48.834;9.132;2023-05-02T03:09:57;98392.63;;;10.19;91.14
15694;BME280;7947;48.834;9.132;2023-05-02T03:13:01;98390.22;;;10.18;91.10
15694;BME280;7947;48.834;9.132;2023-05-02T03:16:34;98394.78;;;10.22;91.79
15694;BME280;7947;48.834;9.132;2023-05-02T03:19:39;98398.53;;;10.26;92.00
15694;BME280;7947;48.834;9.132;2023-05-02T03:22:42;98405.53;;;10.27;91.77
15694;BME280;7947;48.834;9.132;2023-05-02T03:25:45;98402.03;;;10.27;92.12
15694;BME280;7947;48.834;9.132;2023-05-02T03:28:47;98407.66;;;10.30;91.82
15694;BME280;7947;48.834;9.132;2023-05-02T03:31:51;98407.94;;;10.29;92.49
15694;BME280;7947;48.834;9.132;2023-05-02T03:34:56;98408.19;;;10.27;91.55
15694;BME280;7947;48.834;9.132;2023-05-02T03:37:59;98413.84;;;10.26;91.71
15694;BME280;7947;48.834;9.132;2023-05-02T03:41:02;98418.91;;;10.27;92.32
15694;BME280;7947;48.834;9.132;2023-05-02T03:44:06;98421.56;;;10.22;92.64
15694;BME280;7947;48.834;9.132;2023-05-02T03:47:09;98433.66;;;10.25;92.55
15694;BME280;7947;48.834;9.132;2023-05-02T03:50:16;98433.09;;;10.23;92.76
15694;BME280;7947;48.834;9.132;2023-05-02T03:53:18;98434.97;;;10.22;93.16
15694;BME280;7947;48.834;9.132;2023-05-02T03:56:21;98443.56;;;10.24;93.73
15694;BME280;7947;48.834;9.132;2023-05-02T03:59:24;98444.09;;;10.26;94.04
15694;BME280;7947;48.834;9.132;2023-05-02T04:02:28;98437.13;;;10.30;94.78
15694;BME280;7947;48.834;9.132;2023-05-02T04:05:32;98449.75;;;10.30;94.79
15694;BME280;7947;48.834;9.132;2023-05-02T04:08:35;98446.53;;;10.33;94.88
15694;BME280;7947;48.834;9.132;2023-05-02T04:11:38;98450.31;;;10.42;95.12
15694;BME280;7947;48.834;9.132;2023-05-02T04:14:42;98455.16;;;10.45;95.29
15694;BME280;7947;48.834;9.132;2023-05-02T04:17:45;98454.34;;;10.49;95.27
15694;BME280;7947;48.834;9.132;2023-05-02T04:20:49;98450.88;;;10.54;95.52
15694;BME280;7947;48.834;9.132;2023-05-02T04:23:52;98453.00;;;10.57;95.51
15694;BME280;7947;48.834;9.132;2023-05-02T04:26:54;98457.03;;;10.59;95.44
15694;BME280;7947;48.834;9.132;2023-05-02T04:29:57;98459.97;;;10.63;96.31
15694;BME280;7947;48.834;9.132;2023-05-02T04:33:00;98454.09;;;10.66;96.39
15694;BME280;7947;48.834;9.132;2023-05-02T04:36:05;98462.69;;;10.68;96.44
15694;BME280;7947;48.834;9.132;2023-05-02T04:39:08;98467.78;;;10.74;96.86
15694;BME280;7947;48.834;9.132;2023-05-02T04:42:11;98454.38;;;10.84;96.60
15694;BME280;7947;48.834;9.132;2023-05-02T04:45:13;98460.56;;;10.85;96.71
15694;BME280;7947;48.834;9.132;2023-05-02T04:48:16;98474.78;;;10.85;96.72
15694;BME280;7947;48.834;9.132;2023-05-02T04:51:20;98470.19;;;10.86;96.43
15694;BME280;7947;48.834;9.132;2023-05-02T04:54:23;98465.13;;;10.89;97.01
15694;BME280;7947;48.834;9.132;2023-05-02T04:57:26;98471.03;;;10.92;96.78
15694;BME280;7947;48.834;9.132;2023-05-02T05:00:28;98473.44;;;10.93;96.77
15694;BME280;7947;48.834;9.132;2023-05-02T05:03:31;98476.38;;;10.97;96.85
15694;BME280;7947;48.834;9.132;2023-05-02T05:06:35;98484.72;;;11.05;97.20
15694;BME280;7947;48.834;9.132;2023-05-02T05:09:38;98494.63;;;11.10;96.75
15694;BME280;7947;48.834;9.132;2023-05-02T05:12:41;98493.00;;;11.14;96.82
15694;BME280;7947;48.834;9.132;2023-05-02T05:15:44;98504.81;;;11.23;96.29
15694;BME280;7947;48.834;9.132;2023-05-02T05:18:46;98510.47;;;11.26;95.10
15694;BME280;7947;48.834;9.132;2023-05-02T05:21:51;98515.28;;;11.29;95.54
15694;BME280;7947;48.834;9.132;2023-05-02T05:24:54;98517.16;;;11.34;95.87
15694;BME280;7947;48.834;9.132;2023-05-02T05:27:58;98520.63;;;11.44;95.32
15694;BME280;7947;48.834;9.132;2023-05-02T05:31:04;98519.56;;;11.55;93.56
15694;BME280;7947;48.834;9.132;2023-05-02T05:34:06;98529.47;;;11.60;93.76
15694;BME280;7947;48.834;9.132;2023-05-02T05:37:11;98535.13;;;11.73;92.54
15694;BME280;7947;48.834;9.132;2023-05-02T05:40:13;98536.47;;;11.76;91.38
15694;BME280;7947;48.834;9.132;2023-05-02T05:43:17;98547.75;;;11.83;90.80
15694;BME280;7947;48.834;9.132;2023-05-02T05:46:19;98547.75;;;11.88;90.36
15694;BME280;7947;48.834;9.132;2023-05-02T05:49:22;98554.19;;;11.92;90.17
15694;BME280;7947;48.834;9.132;2023-05-02T05:52:26;98561.44;;;11.92;90.16
15694;BME280;7947;48.834;9.132;2023-05-02T05:55:29;98565.72;;;11.98;89.74
15694;BME280;7947;48.834;9.132;2023-05-02T05:58:32;98561.13;;;12.03;89.84
15694;BME280;7947;48.834;9.132;2023-05-02T06:01:35;98564.31;;;12.10;89.49
15694;BME280;7947;48.834;9.132;2023-05-02T06:04:38;98569.97;;;12.19;89.51
15694;BME280;7947;48.834;9.132;2023-05-02T06:07:42;98577.19;;;12.28;89.46
15694;BME280;7947;48.834;9.132;2023-05-02T06:10:45;98578.50;;;12.36;89.98
15694;BME280;7947;48.834;9.132;2023-05-02T06:13:47;98573.91;;;12.41;89.92
15694;BME280;7947;48.834;9.132;2023-05-02T06:16:50;98584.63;;;12.51;89.61
15694;BME280;7947;48.834;9.132;2023-05-02T06:19:53;98583.28;;;12.54;88.57
15694;BME280;7947;48.834;9.132;2023-05-02T06:22:57;98598.28;;;12.65;87.94
15694;BME280;7947;48.834;9.132;2023-05-02T06:26:00;98593.69;;;12.70;87.81
15694;BME280;7947;48.834;9.132;2023-05-02T06:29:03;98597.97;;;12.77;87.60
15694;BME280;7947;48.834;9.132;2023-05-02T06:32:05;98605.47;;;12.85;87.23
15694;BME280;7947;48.834;9.132;2023-05-02T06:35:09;98598.97;;;12.91;85.72
15694;BME280;7947;48.834;9.132;2023-05-02T06:38:13;98609.94;;;12.99;86.03
15694;BME280;7947;48.834;9.132;2023-05-02T06:41:18;98609.94;;;12.99;84.55
15694;BME280;7947;48.834;9.132;2023-05-02T06:44:21;98612.09;;;13.02;83.60
15694;BME280;7947;48.834;9.132;2023-05-02T06:47:23;98617.22;;;12.99;83.15
15694;BME280;7947;48.834;9.132;2023-05-02T06:50:27;98619.41;;;12.97;82.64
15694;BME280;7947;48.834;9.132;2023-05-02T06:53:31;98627.22;;;12.88;84.02
15694;BME280;7947;48.834;9.132;2023-05-02T06:56:34;98628.59;;;12.86;83.28
15694;BME280;7947;48.834;9.132;2023-05-02T06:59:37;98624.28;;;12.85;83.41
15694;BME280;7947;48.834;9.132;2023-05-02T07:02:40;98632.91;;;12.82;82.64
15694;BME280;7947;48.834;9.132;2023-05-02T07:05:43;98633.22;;;12.75;83.03
15694;BME280;7947;48.834;9.132;2023-05-02T07:08:47;98641.31;;;12.70;84.41
15694;BME280;7947;48.834;9.132;2023-05-02T07:11:49;98648.59;;;12.69;84.88
15694;BME280;7947;48.834;9.132;2023-05-02T07:14:52;98651.00;;;12.71;85.67
15694;BME280;7947;48.834;9.132;2023-05-02T07:17:55;98648.59;;;12.69;86.25
15694;BME280;7947;48.834;9.132;2023-05-02T07:20:57;98652.06;;;12.75;86.22
15694;BME280;7947;48.834;9.132;2023-05-02T07:24:03;98656.34;;;12.81;85.73
15694;BME280;7947;48.834;9.132;2023-05-02T07:27:07;98656.88;;;12.83;85.12
15694;BME280;7947;48.834;9.132;2023-05-02T07:30:11;98654.72;;;12.85;84.97
15694;BME280;7947;48.834;9.132;2023-05-02T07:33:14;98657.66;;;12.89;84.54
15694;BME280;7947;48.834;9.132;2023-05-02T07:36:16;98661.41;;;12.93;84.43
15694;BME280;7947;48.834;9.132;2023-05-02T07:39:21;98667.84;;;12.97;84.53
15694;BME280;7947;48.834;9.132;2023-05-02T07:42:27;98655.72;;;13.04;84.53
15694;BME280;7947;48.834;9.132;2023-05-02T07:45:30;98668.09;;;13.10;83.75
15694;BME280;7947;48.834;9.132;2023-05-02T07:48:33;98671.56;;;13.16;82.95
15694;BME280;7947;48.834;9.132;2023-05-02T07:51:37;98672.88;;;13.18;82.98
15694;BME280;7947;48.834;9.132;2023-05-02T07:54:41;98673.97;;;13.17;83.41
15694;BME280;7947;48.834;9.132;2023-05-02T07:57:44;98679.28;;;13.27;82.85
15694;BME280;7947;48.834;9.132;2023-05-02T08:00:47;98680.13;;;13.23;82.68
15694;BME280;7947;48.834;9.132;2023-05-02T08:03:49;98681.19;;;13.27;82.71
15694;BME280;7947;48.834;9.132;2023-05-02T08:06:53;98686.81;;;13.30;83.92
15694;BME280;7947;48.834;9.132;2023-05-02T08:09:57;98686.53;;;13.32;83.53
15694;BME280;7947;48.834;9.132;2023-05-02T08:13:00;98691.91;;;13.37;83.89
15694;BME280;7947;48.834;9.132;2023-05-02T08:16:03;98695.91;;;13.39;83.06
15694;BME280;7947;48.834;9.132;2023-05-02T08:19:07;98706.97;;;13.38;83.44
15694;BME280;7947;48.834;9.132;2023-05-02T08:22:10;98701.03;;;13.41;83.14
15694;BME280;7947;48.834;9.132;2023-05-02T08:25:14;98698.06;;;13.42;83.55
15694;BME280;7947;48.834;9.132;2023-05-02T08:28:17;98700.72;;;13.47;83.82
15694;BME280;7947;48.834;9.132;2023-05-02T08:31:20;98702.81;;;13.55;83.24
15694;BME280;7947;48.834;9.132;2023-05-02T08:34:23;98705.44;;;13.66;82.36
15694;BME280;7947;48.834;9.132;2023-05-02T08:37:26;98699.19;;;13.75;82.05
15694;BME280;7947;48.834;9.132;2023-05-02T08:40:32;98710.88;;;13.94;80.28
15694;BME280;7947;48.834;9.132;2023-05-02T08:43:43;98704.66;;;13.99;81.47
15694;BME280;7947;48.834;9.132;2023-05-02T08:46:48;98701.63;;;14.05;81.24
15694;BME280;7947;48.834;9.132;2023-05-02T08:49:52;98716.66;;;14.16;80.73
15694;BME280;7947;48.834;9.132;2023-05-02T08:52:57;98706.84;;;14.25;79.70
15694;BME280;7947;48.834;9.132;2023-05-02T08:56:02;98708.44;;;14.31;78.99
15694;BME280;7947;48.834;9.132;2023-05-02T08:59:05;98716.44;;;14.41;78.48
15694;BME280;7947;48.834;9.132;2023-05-02T09:02:11;98722.31;;;14.48;77.65
15694;BME280;7947;48.834;9.132;2023-05-02T09:05:18;98721.75;;;14.52;78.04
15694;BME280;7947;48.834;9.132;2023-05-02T09:08:22;98722.28;;;14.54;78.29
15694;BME280;7947;48.834;9.132;2023-05-02T09:11:28;98735.13;;;14.62;77.69
15694;BME280;7947;48.834;9.132;2023-05-02T09:14:30;98725.09;;;14.67;75.77
15694;BME280;7947;48.834;9.132;2023-05-02T09:17:38;98730.72;;;14.71;76.34
15694;BME280;7947;48.834;9.132;2023-05-02T09:20:41;98736.09;;;14.94;77.93
15694;BME280;7947;48.834;9.132;2023-05-02T09:23:45;98734.41;;;15.03;74.45
15694;BME280;7947;48.834;9.132;2023-05-02T09:26:57;98732.44;;;15.09;75.26
15694;BME280;7947;48.834;9.132;2023-05-02T09:30:22;98742.09;;;15.15;74.67
15694;BME280;7947;48.834;9.132;2023-05-02T09:33:25;98729.31;;;15.20;73.79
15694;BME280;7947;48.834;9.132;2023-05-02T09:36:38;98732.75;;;15.50;74.78
15694;BME280;7947;48.834;9.132;2023-05-02T09:40:04;98732.47;;;15.70;74.08
15694;BME280;7947;48.834;9.132;2023-05-02T09:43:14;98735.59;;;15.77;71.84
15694;BME280;7947;48.834;9.132;2023-05-02T09:46:17;98723.66;;;15.78;72.54
15694;BME280;7947;48.834;9.132;2023-05-02T09:49:38;98723.31;;;16.16;70.93
15694;BME280;7947;48.834;9.132;2023-05-02T09:52:59;98716.44;;;16.38;68.75
15694;BME280;7947;48.834;9.132;2023-05-02T09:56:03;98722.66;;;16.57;68.44
15694;BME280;7947;48.834;9.132;2023-05-02T09:59:12;98713.03;;;16.64;69.60
15694;BME280;7947;48.834;9.132;2023-05-02T10:02:16;98716.53;;;16.92;69.58
15694;BME280;7947;48.834;9.132;2023-05-02T10:05:19;98716.03;;;17.17;66.20
15694;BME280;7947;48.834;9.132;2023-05-02T10:08:24;98721.72;;;17.56;64.76
15694;BME280;7947;48.834;9.132;2023-05-02T10:11:30;98718.00;;;17.88;63.66
15694;BME280;7947;48.834;9.132;2023-05-02T10:14:38;98725.56;;;18.13;64.20
15694;BME280;7947;48.834;9.132;2023-05-02T10:17:47;98719.88;;;18.23;62.80
15694;BME280;7947;48.834;9.132;2023-05-02T10:20:55;98723.00;;;18.39;60.57
15694;BME280;7947;48.834;9.132;2023-05-02T10:24:00;98727.13;;;18.36;60.42
15694;BME280;7947;48.834;9.132;2023-05-02T10:27:04;98727.97;;;18.67;59.30
15694;BME280;7947;48.834;9.132;2023-05-02T10:30:09;98729.53;;;18.90;61.01
15694;BME280;7947;48.834;9.132;2023-05-02T10:33:15;98726.31;;;18.97;59.75
15694;BME280;7947;48.834;9.132;2023-05-02T10:36:20;98719.97;;;19.02;57.48
15694;BME280;7947;48.834;9.132;2023-05-02T10:39:24;98709.53;;;18.95;56.75
15694;BME280;7947;48.834;9.132;2023-05-02T10:42:27;98719.56;;;18.86;57.97
15694;BME280;7947;48.834;9.132;2023-05-02T10:45:33;98710.50;;;18.90;56.93
15694;BME280;7947;48.834;9.132;2023-05-02T10:48:36;98707.88;;;18.77;57.00
15694;BME280;7947;48.834;9.132;2023-05-02T10:51:40;98703.47;;;18.59;57.42
15694;BME280;7947;48.834;9.132;2023-05-02T10:54:44;98705.22;;;18.55;57.23
15694;BME280;7947;48.834;9.132;2023-05-02T10:58:20;98697.75;;;18.38;57.46
15694;BME280;7947;48.834;9.132;2023-05-02T11:01:37;98690.94;;;18.19;58.74
15694;BME280;7947;48.834;9.132;2023-05-02T11:05:00;98701.00;;;17.96;59.43
15694;BME280;7947;48.834;9.132;2023-05-02T11:08:29;98688.41;;;18.00;58.99
15694;BME280;7947;48.834;9.132;2023-05-02T11:11:39;98693.81;;;18.44;57.00
15694;BME280;7947;48.834;9.132;2023-05-02T11:14:46;98692.41;;;18.86;54.54
15694;BME280;7947;48.834;9.132;2023-05-02T11:18:00;98688.03;;;19.16;53.56
15694;BME280;7947;48.834;9.132;2023-05-02T11:21:26;98694.03;;;19.43;55.20
15694;BME280;7947;48.834;9.132;2023-05-02T11:24:37;98692.38;;;19.34;52.15
15694;BME280;7947;48.834;9.132;2023-05-02T11:27:40;98687.63;;;19.48;53.18
15694;BME280;7947;48.834;9.132;2023-05-02T11:30:44;98689.22;;;19.74;56.72
15694;BME280;7947;48.834;9.132;2023-05-02T11:33:55;98690.34;;;19.91;53.16
15694;BME280;7947;48.834;9.132;2023-05-02T11:36:58;98688.25;;;20.05;52.62
15694;BME280;7947;48.834;9.132;2023-05-02T11:40:10;98689.69;;;20.19;52.92
15694;BME280;7947;48.834;9.132;2023-05-02T11:43:15;98686.16;;;20.36;52.68
15694;BME280;7947;48.834;9.132;2023-05-02T11:46:18;98677.81;;;20.32;50.07
15694;BME280;7947;48.834;9.132;2023-05-02T11:49:23;98685.00;;;20.37;50.11
15694;BME280;7947;48.834;9.132;2023-05-02T11:52:26;98685.63;;;20.51;51.29
15694;BME280;7947;48.834;9.132;2023-05-02T11:55:29;98682.06;;;20.59;49.33
15694;BME280;7947;48.834;9.132;2023-05-02T11:58:31;98674.50;;;20.64;50.51
15694;BME280;7947;48.834;9.132;2023-05-02T12:01:35;98676.22;;;20.78;50.97
15694;BME280;7947;48.834;9.132;2023-05-02T12:04:42;98679.44;;;21.00;51.05
15694;BME280;7947;48.834;9.132;2023-05-02T12:07:46;98680.44;;;21.04;47.05
15694;BME280;7947;48.834;9.132;2023-05-02T12:10:50;98676.44;;;20.93;47.58
15694;BME280;7947;48.834;9.132;2023-05-02T12:13:53;98685.13;;;20.49;49.02
15694;BME280;7947;48.834;9.132;2023-05-02T12:16:57;98691.63;;;19.93;49.95
15694;BME280;7947;48.834;9.132;2023-05-02T12:20:02;98688.72;;;19.38;52.46
15694;BME280;7947;48.834;9.132;2023-05-02T12:23:05;98693.41;;;18.99;53.86
15694;BME280;7947;48.834;9.132;2023-05-02T12:26:17;98694.75;;;18.70;54.28
15694;BME280;7947;48.834;9.132;2023-05-02T12:29:20;98700.94;;;18.62;56.66
15694;BME280;7947;48.834;9.132;2023-05-02T12:32:27;98695.06;;;18.69;55.60
15694;BME280;7947;48.834;9.132;2023-05-02T12:35:33;98693.41;;;18.59;55.36
15694;BME280;7947;48.834;9.132;2023-05-02T12:38:36;98697.22;;;18.50;55.69
15694;BME280;7947;48.834;9.132;2023-05-02T12:41:38;98701.06;;;18.57;55.89
15694;BME280;7947;48.834;9.132;2023-05-02T12:44:46;98699.59;;;18.51;54.65
15694;BME280;7947;48.834;9.132;2023-05-02T12:47:49;98698.19;;;18.54;54.32
15694;BME280;7947;48.834;9.132;2023-05-02T12:50:54;98708.97;;;18.76;54.04
15694;BME280;7947;48.834;9.132;2023-05-02T12:53:56;98704.25;;;18.90;53.66
15694;BME280;7947;48.834;9.132;2023-05-02T12:56:59;98706.41;;;19.10;52.41
15694;BME280;7947;48.834;9.132;2023-05-02T13:00:04;98701.47;;;19.29;51.87
15694;BME280;7947;48.834;9.132;2023-05-02T13:03:08;98698.03;;;19.54;51.32
15694;BME280;7947;48.834;9.132;2023-05-02T13:06:13;98703.00;;;19.87;53.86
15694;BME280;7947;48.834;9.132;2023-05-02T13:09:15;98696.56;;;20.17;50.25
15694;BME280;7947;48.834;9.132;2023-05-02T13:12:19;98692.56;;;20.31;48.23
15694;BME280;7947;48.834;9.132;2023-05-02T13:15:21;98693.50;;;20.44;49.80
15694;BME280;7947;48.834;9.132;2023-05-02T13:18:24;98691.97;;;20.63;49.17
15694;BME280;7947;48.834;9.132;2023-05-02T13:21:30;98703.47;;;20.78;47.98
15694;BME280;7947;48.834;9.132;2023-05-02T13:24:33;98692.47;;;20.95;47.80
15694;BME280;7947;48.834;9.132;2023-05-02T13:27:35;98691.03;;;20.97;48.79
15694;BME280;7947;48.834;9.132;2023-05-02T13:30:38;98691.34;;;20.66;45.96
15694;BME280;7947;48.834;9.132;2023-05-02T13:33:41;98694.13;;;20.41;46.57
15694;BME280;7947;48.834;9.132;2023-05-02T13:36:45;98698.81;;;19.98;47.59
15694;BME280;7947;48.834;9.132;2023-05-02T13:39:48;98695.97;;;19.68;49.02
15694;BME280;7947;48.834;9.132;2023-05-02T13:42:50;98688.28;;;19.88;49.66
15694;BME280;7947;48.834;9.132;2023-05-02T13:45:53;98689.84;;;20.23;50.39
15694;BME280;7947;48.834;9.132;2023-05-02T13:48:56;98682.22;;;20.54;49.60
15694;BME280;7947;48.834;9.132;2023-05-02T13:52:00;98690.13;;;20.47;46.91
15694;BME280;7947;48.834;9.132;2023-05-02T13:55:03;98683.56;;;20.39;47.11
15694;BME280;7947;48.834;9.132;2023-05-02T13:58:07;98686.72;;;20.58;45.15
15694;BME280;7947;48.834;9.132;2023-05-02T14:01:10;98687.16;;;20.69;43.99
15694;BME280;7947;48.834;9.132;2023-05-02T14:04:12;98680.38;;;20.75;45.31
15694;BME280;7947;48.834;9.132;2023-05-02T14:07:17;98678.38;;;20.55;46.00
15694;BME280;7947;48.834;9.132;2023-05-02T14:10:19;98672.00;;;20.51;45.37
15694;BME280;7947;48.834;9.132;2023-05-02T14:13:22;98673.41;;;20.57;43.66
15694;BME280;7947;48.834;9.132;2023-05-02T14:16:26;98686.50;;;20.72;46.33
15694;BME280;7947;48.834;9.132;2023-05-02T14:19:29;98685.81;;;20.84;44.17
15694;BME280;7947;48.834;9.132;2023-05-02T14:22:34;98674.41;;;20.90;43.71
15694;BME280;7947;48.834;9.132;2023-05-02T14:25:37;98678.38;;;20.93;45.12
15694;BME280;7947;48.834;9.132;2023-05-02T14:28:39;98684.03;;;20.88;43.84
15694;BME280;7947;48.834;9.132;2023-05-02T14:31:42;98687.16;;;20.98;43.36
15694;BME280;7947;48.834;9.132;2023-05-02T14:34:46;98681.56;;;20.95;43.58
15694;BME280;7947;48.834;9.132;2023-05-02T14:37:50;98684.44;;;20.98;45.39
15694;BME280;7947;48.834;9.132;2023-05-02T14:40:53;98685.03;;;21.12;44.30
15694;BME280;7947;48.834;9.132;2023-05-02T14:43:56;98672.81;;;21.18;44.79
15694;BME280;7947;48.834;9.132;2023-05-02T14:46:59;98685.97;;;21.16;43.01
15694;BME280;7947;48.834;9.132;2023-05-02T14:50:03;98686.53;;;21.30;42.28
15694;BME280;7947;48.834;9.132;2023-05-02T14:53:08;98687.06;;;21.24;43.12
15694;BME280;7947;48.834;9.132;2023-05-02T14:56:12;98694.22;;;21.08;43.31
15694;BME280;7947;48.834;9.132;2023-05-02T14:59:16;98689.91;;;20.60;43.10
15694;BME280;7947;48.834;9.132;2023-05-02T15:02:19;98698.00;;;20.14;45.45
15694;BME280;7947;48.834;9.132;2023-05-02T15:05:22;98693.53;;;20.10;45.89
15694;BME280;7947;48.834;9.132;2023-05-02T15:08:26;98682.00;;;20.21;45.18
15694;BME280;7947;48.834;9.132;2023-05-02T15:11:29;98686.97;;;20.28;46.31
15694;BME280;7947;48.834;9.132;2023-05-02T15:14:32;98688.53;;;20.37;44.50
15694;BME280;7947;48.834;9.132;2023-05-02T15:17:34;98692.81;;;20.55;45.55
15694;BME280;7947;48.834;9.132;2023-05-02T15:20:37;98695.22;;;20.48;43.61
15694;BME280;7947;48.834;9.132;2023-05-02T15:23:41;98704.59;;;20.05;43.62
15694;BME280;7947;48.834;9.132;2023-05-02T15:26:44;98716.44;;;20.00;45.96
15694;BME280;7947;48.834;9.132;2023-05-02T15:29:47;98708.13;;;20.05;44.58
15694;BME280;7947;48.834;9.132;2023-05-02T15:32:50;98694.66;;;20.09;44.77
15694;BME280;7947;48.834;9.132;2023-05-02T15:35:54;98702.53;;;20.19;43.99
15694;BME280;7947;48.834;9.132;2023-05-02T15:38:59;98705.88;;;20.24;43.49
15694;BME280;7947;48.834;9.132;2023-05-02T15:42:03;98699.44;;;20.29;43.04
15694;BME280;7947;48.834;9.132;2023-05-02T15:45:07;98704.13;;;20.28;43.13
15694;BME280;7947;48.834;9.132;2023-05-02T15:48:12;98704.25;;;20.32;43.25
15694;BME280;7947;48.834;9.132;2023-05-02T15:51:15;98705.06;;;20.32;42.34
15694;BME280;7947;48.834;9.132;2023-05-02T15:54:20;98705.84;;;20.33;43.41
15694;BME280;7947;48.834;9.132;2023-05-02T15:57:23;98712.44;;;20.23;41.30
15694;BME280;7947;48.834;9.132;2023-05-02T16:00:26;98709.25;;;19.87;41.66
15694;BME280;7947;48.834;9.132;2023-05-02T16:03:29;98711.00;;;19.74;43.59
15694;BME280;7947;48.834;9.132;2023-05-02T16:06:32;98715.78;;;19.86;42.50
15694;BME280;7947;48.834;9.132;2023-05-02T16:09:36;98713.41;;;19.93;41.55
15694;BME280;7947;48.834;9.132;2023-05-02T16:12:40;98717.56;;;19.99;42.91
15694;BME280;7947;48.834;9.132;2023-05-02T16:15:42;98716.28;;;19.97;42.15
15694;BME280;7947;48.834;9.132;2023-05-02T16:18:45;98707.00;;;19.89;41.48
15694;BME280;7947;48.834;9.132;2023-05-02T16:21:48;98715.97;;;19.90;41.15
15694;BME280;7947;48.834;9.132;2023-05-02T16:24:52;98717.09;;;19.71;41.51
15694;BME280;7947;48.834;9.132;2023-05-02T16:27:55;98722.50;;;19.63;41.54
15694;BME280;7947;48.834;9.132;2023-05-02T16:31:04;98715.00;;;19.60;41.19